sensor_id;sensor_type;location;lat;lon;timestamp;temperature;humidity
4376;DHT22;2202;50.866;12.750;2023-06-22T00:02:17;17.70;92.50
4376;DHT22;2202;50.866;12.750;2023-06-22T03:16:30;16.40;94.90
4376;DHT22;2202;50.866;12.750;2023-06-22T03:18:58;16.40;94.80
4376;DHT22;2202;50.866;12.750;2023-06-22T03:21:27;16.40;94.90
4376;DHT22;2202;50.866;12.750;2023-06-22T03:23:55;16.40;94.80
4376;DHT22;2202;50.866;12.750;2023-06-22T03:26:22;16.40;94.80
4376;DHT22;2202;50.866;12.750;2023-06-22T03:28:52;16.40;94.80
4376;DHT22;2202;50.866;12.750;2023-06-22T03:31:18;16.50;94.70
4376;DHT22;2202;50.866;12.750;2023-06-22T03:33:48;16.50;94.70
4376;DHT22;2202;50.866;12.750;2023-06-22T03:36:15;16.50;94.70
4376;DHT22;2202;50.866;12.750;2023-06-22T03:38:44;16.50;95.00
4376;DHT22;2202;50.866;12.750;2023-06-22T03:41:11;16.50;95.10
4376;DHT22;2202;50.866;12.750;2023-06-22T03:43:38;16.50;95.00
4376;DHT22;2202;50.866;12.750;2023-06-22T03:46:05;16.50;94.90
4376;DHT22;2202;50.866;12.750;2023-06-22T03:48:31;16.60;94.80
4376;DHT22;2202;50.866;12.750;2023-06-22T03:51:01;16.60;94.80
4376;DHT22;2202;50.866;12.750;2023-06-22T03:53:28;16.60;95.00
4376;DHT22;2202;50.866;12.750;2023-06-22T03:55:55;16.60;95.00
4376;DHT22;2202;50.866;12.750;2023-06-22T03:58:22;16.60;94.80
4376;DHT22;2202;50.866;12.750;2023-06-22T04:00:50;16.70;95.00
4376;DHT22;2202;50.866;12.750;2023-06-22T04:03:18;16.70;95.10
4376;DHT22;2202;50.866;12.750;2023-06-22T04:05:46;16.80;95.40
4376;DHT22;2202;50.866;12.750;2023-06-22T04:08:14;16.80;95.60
4376;DHT22;2202;50.866;12.750;2023-06-22T04:10:41;16.90;95.70
4376;DHT22;2202;50.866;12.750;2023-06-22T04:13:08;17.00;95.70
4376;DHT22;2202;50.866;12.750;2023-06-22T04:15:35;17.00;95.70
4376;DHT22;2202;50.866;12.750;2023-06-22T04:18:02;17.10;96.00
4376;DHT22;2202;50.866;12.750;2023-06-22T04:20:29;17.30;96.20
4376;DHT22;2202;50.866;12.750;2023-06-22T04:22:56;17.40;96.50
4376;DHT22;2202;50.866;12.750;2023-06-22T04:25:25;17.60;96.70
4376;DHT22;2202;50.866;12.750;2023-06-22T04:27:52;17.70;96.80
4376;DHT22;2202;50.866;12.750;2023-06-22T04:30:18;17.80;96.90
4376;DHT22;2202;50.866;12.750;2023-06-22T04:32:45;18.00;97.00
4376;DHT22;2202;50.866;12.750;2023-06-22T04:35:23;18.20;97.20
4376;DHT22;2202;50.866;12.750;2023-06-22T04:37:50;18.30;97.10
4376;DHT22;2202;50.866;12.750;2023-06-22T04:40:21;18.40;97.00
4376;DHT22;2202;50.866;12.750;2023-06-22T04:42:49;18.60;96.80
4376;DHT22;2202;50.866;12.750;2023-06-22T04:45:28;18.70;96.70
4376;DHT22;2202;50.866;12.750;2023-06-22T04:47:55;18.90;96.20
4376;DHT22;2202;50.866;12.750;2023-06-22T04:50:23;19.00;95.00
4376;DHT22;2202;50.866;12.750;2023-06-22T04:52:50;19.10;94.50
4376;DHT22;2202;50.866;12.750;2023-06-22T04:55:17;19.20;93.90
4376;DHT22;2202;50.866;12.750;2023-06-22T04:57:45;19.20;93.60
4376;DHT22;2202;50.866;12.750;2023-06-22T05:00:16;19.30;93.50
4376;DHT22;2202;50.866;12.750;2023-06-22T05:02:45;19.40;93.00
4376;DHT22;2202;50.866;12.750;2023-06-22T05:05:13;19.60;92.90
4376;DHT22;2202;50.866;12.750;2023-06-22T05:10:52;19.80;93.00
4376;DHT22;2202;50.866;12.750;2023-06-22T05:13:25;19.90;92.00
4376;DHT22;2202;50.866;12.750;2023-06-22T05:15:57;20.00;92.20
4376;DHT22;2202;50.866;12.750;2023-06-22T05:18:26;20.20;92.60
4376;DHT22;2202;50.866;12.750;2023-06-22T05:20:54;20.40;92.20
4376;DHT22;2202;50.866;12.750;2023-06-22T05:23:21;20.50;91.80
4376;DHT22;2202;50.866;12.750;2023-06-22T05:25:48;20.70;91.90
4376;DHT22;2202;50.866;12.750;2023-06-22T05:31:43;20.90;91.50
4376;DHT22;2202;50.866;12.750;2023-06-22T05:34:10;21.10;90.80
4376;DHT22;2202;50.866;12.750;2023-06-22T05:36:36;21.20;87.40
4376;DHT22;2202;50.866;12.750;2023-06-22T05:39:11;21.30;86.20
4376;DHT22;2202;50.866;12.750;2023-06-22T05:41:38;21.40;84.80
4376;DHT22;2202;50.866;12.750;2023-06-22T05:44:05;21.60;81.20
4376;DHT22;2202;50.866;12.750;2023-06-22T05:46:32;21.70;83.60
4376;DHT22;2202;50.866;12.750;2023-06-22T05:49:00;21.80;82.60
4376;DHT22;2202;50.866;12.750;2023-06-22T05:51:27;21.90;83.40
4376;DHT22;2202;50.866;12.750;2023-06-22T05:53:53;21.90;82.40
4376;DHT22;2202;50.866;12.750;2023-06-22T05:56:20;22.00;82.00
4376;DHT22;2202;50.866;12.750;2023-06-22T05:58:47;22.00;82.60
4376;DHT22;2202;50.866;12.750;2023-06-22T06:01:14;22.00;80.60
4376;DHT22;2202;50.866;12.750;2023-06-22T06:03:41;22.10;80.60
4376;DHT22;2202;50.866;12.750;2023-06-22T06:06:11;22.10;80.60
4376;DHT22;2202;50.866;12.750;2023-06-22T06:08:37;22.20;79.40
4376;DHT22;2202;50.866;12.750;2023-06-22T06:11:04;22.30;79.40
4376;DHT22;2202;50.866;12.750;2023-06-22T06:13:31;22.50;78.80
4376;DHT22;2202;50.866;12.750;2023-06-22T06:15:58;22.60;76.60
4376;DHT22;2202;50.866;12.750;2023-06-22T06:18:24;22.60;75.80
4376;DHT22;2202;50.866;12.750;2023-06-22T06:20:51;22.70;75.80
4376;DHT22;2202;50.866;12.750;2023-06-22T06:23:19;22.90;75.40
4376;DHT22;2202;50.866;12.750;2023-06-22T06:25:46;22.90;73.00
4376;DHT22;2202;50.866;12.750;2023-06-22T06:28:13;22.90;74.60
4376;DHT22;2202;50.866;12.750;2023-06-22T06:30:39;23.00;73.20
4376;DHT22;2202;50.866;12.750;2023-06-22T06:33:06;23.10;73.60
4376;DHT22;2202;50.866;12.750;2023-06-22T06:35:34;23.10;73.00
4376;DHT22;2202;50.866;12.750;2023-06-22T06:38:01;23.10;74.20
4376;DHT22;2202;50.866;12.750;2023-06-22T06:40:29;23.20;73.00
4376;DHT22;2202;50.866;12.750;2023-06-22T06:42:56;23.30;73.40
4376;DHT22;2202;50.866;12.750;2023-06-22T06:45:23;23.50;73.20
4376;DHT22;2202;50.866;12.750;2023-06-22T06:47:51;23.60;72.40
4376;DHT22;2202;50.866;12.750;2023-06-22T06:50:18;23.80;72.40
4376;DHT22;2202;50.866;12.750;2023-06-22T06:56:15;24.40;71.40
4376;DHT22;2202;50.866;12.750;2023-06-22T06:58:42;25.10;69.60
4376;DHT22;2202;50.866;12.750;2023-06-22T07:01:10;25.50;65.80
4376;DHT22;2202;50.866;12.750;2023-06-22T07:03:37;25.80;65.60
4376;DHT22;2202;50.866;12.750;2023-06-22T07:06:04;26.20;63.20
4376;DHT22;2202;50.866;12.750;2023-06-22T07:08:30;26.50;62.20
4376;DHT22;2202;50.866;12.750;2023-06-22T07:10:57;26.90;61.60
4376;DHT22;2202;50.866;12.750;2023-06-22T07:13:25;27.20;58.30
4376;DHT22;2202;50.866;12.750;2023-06-22T07:15:52;27.30;56.70
4376;DHT22;2202;50.866;12.750;2023-06-22T07:18:18;27.40;56.90
4376;DHT22;2202;50.866;12.750;2023-06-22T07:20:45;27.60;56.00
4376;DHT22;2202;50.866;12.750;2023-06-22T07:23:12;28.10;54.80
4376;DHT22;2202;50.866;12.750;2023-06-22T07:25:39;28.20;51.20
4376;DHT22;2202;50.866;12.750;2023-06-22T07:28:07;28.30;52.30
4376;DHT22;2202;50.866;12.750;2023-06-22T07:30:35;28.40;53.70
4376;DHT22;2202;50.866;12.750;2023-06-22T07:33:02;28.70;52.70
4376;DHT22;2202;50.866;12.750;2023-06-22T07:35:31;29.00;49.80
4376;DHT22;2202;50.866;12.750;2023-06-22T07:37:58;29.10;49.80
4376;DHT22;2202;50.866;12.750;2023-06-22T07:40:25;28.80;48.90
4376;DHT22;2202;50.866;12.750;2023-06-22T07:42:52;28.50;49.80
4376;DHT22;2202;50.866;12.750;2023-06-22T07:45:19;28.50;53.20
4376;DHT22;2202;50.866;12.750;2023-06-22T07:47:47;28.70;52.10
4376;DHT22;2202;50.866;12.750;2023-06-22T07:50:13;29.00;49.60
4376;DHT22;2202;50.866;12.750;2023-06-22T07:52:40;29.20;48.00
4376;DHT22;2202;50.866;12.750;2023-06-22T07:55:07;29.10;49.80
4376;DHT22;2202;50.866;12.750;2023-06-22T07:57:34;29.00;47.50
4376;DHT22;2202;50.866;12.750;2023-06-22T08:00:02;28.90;48.80
4376;DHT22;2202;50.866;12.750;2023-06-22T08:02:34;29.00;49.10
4376;DHT22;2202;50.866;12.750;2023-06-22T08:05:02;28.90;51.40
4376;DHT22;2202;50.866;12.750;2023-06-22T08:07:29;29.30;48.90
4376;DHT22;2202;50.866;12.750;2023-06-22T08:09:58;29.40;46.80
4376;DHT22;2202;50.866;12.750;2023-06-22T08:12:25;29.70;50.30
4376;DHT22;2202;50.866;12.750;2023-06-22T08:14:51;29.90;45.70
4376;DHT22;2202;50.866;12.750;2023-06-22T08:17:18;30.10;44.70
4376;DHT22;2202;50.866;12.750;2023-06-22T08:19:45;30.20;45.90
4376;DHT22;2202;50.866;12.750;2023-06-22T08:22:13;30.30;46.10
4376;DHT22;2202;50.866;12.750;2023-06-22T08:24:39;30.40;45.00
4376;DHT22;2202;50.866;12.750;2023-06-22T08:27:07;30.20;45.00
4376;DHT22;2202;50.866;12.750;2023-06-22T08:29:35;30.10;44.70
4376;DHT22;2202;50.866;12.750;2023-06-22T08:32:02;30.20;46.30
4376;DHT22;2202;50.866;12.750;2023-06-22T08:34:29;30.20;44.00
4376;DHT22;2202;50.866;12.750;2023-06-22T08:36:56;30.50;44.30
4376;DHT22;2202;50.866;12.750;2023-06-22T08:39:24;30.60;45.20
4376;DHT22;2202;50.866;12.750;2023-06-22T08:41:51;30.80;44.70
4376;DHT22;2202;50.866;12.750;2023-06-22T08:44:18;31.10;43.40
4376;DHT22;2202;50.866;12.750;2023-06-22T08:46:45;31.30;45.00
4376;DHT22;2202;50.866;12.750;2023-06-22T08:49:12;31.30;42.00
4376;DHT22;2202;50.866;12.750;2023-06-22T08:51:39;31.20;41.80
4376;DHT22;2202;50.866;12.750;2023-06-22T08:54:06;31.20;43.80
4376;DHT22;2202;50.866;12.750;2023-06-22T08:56:34;31.20;41.80
4376;DHT22;2202;50.866;12.750;2023-06-22T08:59:00;31.20;42.50
4376;DHT22;2202;50.866;12.750;2023-06-22T09:01:27;31.30;42.40
4376;DHT22;2202;50.866;12.750;2023-06-22T09:03:54;31.30;44.50
4376;DHT22;2202;50.866;12.750;2023-06-22T09:06:23;31.50;41.50
4376;DHT22;2202;50.866;12.750;2023-06-22T09:08:49;31.70;41.50
4376;DHT22;2202;50.866;12.750;2023-06-22T09:11:16;31.80;40.80
4376;DHT22;2202;50.866;12.750;2023-06-22T09:13:44;31.80;40.60
4376;DHT22;2202;50.866;12.750;2023-06-22T09:16:11;31.60;39.30
4376;DHT22;2202;50.866;12.750;2023-06-22T09:18:38;31.10;41.30
4376;DHT22;2202;50.866;12.750;2023-06-22T09:21:05;31.30;39.90
4376;DHT22;2202;50.866;12.750;2023-06-22T09:23:31;31.50;41.80
4376;DHT22;2202;50.866;12.750;2023-06-22T09:25:58;32.00;38.80
4376;DHT22;2202;50.866;12.750;2023-06-22T09:28:24;32.00;36.90
4376;DHT22;2202;50.866;12.750;2023-06-22T09:30:52;32.00;39.70
4376;DHT22;2202;50.866;12.750;2023-06-22T09:33:24;32.20;40.90
4376;DHT22;2202;50.866;12.750;2023-06-22T09:35:51;31.80;39.20
4376;DHT22;2202;50.866;12.750;2023-06-22T09:38:18;31.70;37.70
4376;DHT22;2202;50.866;12.750;2023-06-22T09:40:44;31.60;37.40
4376;DHT22;2202;50.866;12.750;2023-06-22T09:43:11;31.50;38.80
4376;DHT22;2202;50.866;12.750;2023-06-22T09:45:38;31.60;40.10
4376;DHT22;2202;50.866;12.750;2023-06-22T09:48:06;31.60;39.00
4376;DHT22;2202;50.866;12.750;2023-06-22T09:50:35;32.00;39.90
4376;DHT22;2202;50.866;12.750;2023-06-22T09:53:02;32.30;39.50
4376;DHT22;2202;50.866;12.750;2023-06-22T09:55:28;32.50;39.00
4376;DHT22;2202;50.866;12.750;2023-06-22T09:57:55;32.80;40.20
4376;DHT22;2202;50.866;12.750;2023-06-22T10:00:21;32.90;37.40
4376;DHT22;2202;50.866;12.750;2023-06-22T10:02:48;33.00;35.80
4376;DHT22;2202;50.866;12.750;2023-06-22T10:05:17;33.00;36.30
4376;DHT22;2202;50.866;12.750;2023-06-22T10:07:44;32.80;36.50
4376;DHT22;2202;50.866;12.750;2023-06-22T10:10:11;32.70;38.10
4376;DHT22;2202;50.866;12.750;2023-06-22T10:12:41;32.90;35.60
4376;DHT22;2202;50.866;12.750;2023-06-22T10:15:09;33.00;37.20
4376;DHT22;2202;50.866;12.750;2023-06-22T10:17:36;32.90;36.30
4376;DHT22;2202;50.866;12.750;2023-06-22T10:20:03;32.70;36.50
4376;DHT22;2202;50.866;12.750;2023-06-22T10:22:38;32.50;37.00
4376;DHT22;2202;50.866;12.750;2023-06-22T10:25:06;32.30;36.90
4376;DHT22;2202;50.866;12.750;2023-06-22T10:27:33;32.20;39.70
4376;DHT22;2202;50.866;12.750;2023-06-22T10:29:59;32.30;37.70
4376;DHT22;2202;50.866;12.750;2023-06-22T10:32:26;32.20;38.30
4376;DHT22;2202;50.866;12.750;2023-06-22T10:34:53;32.00;40.20
4376;DHT22;2202;50.866;12.750;2023-06-22T10:37:20;32.30;38.60
4376;DHT22;2202;50.866;12.750;2023-06-22T10:39:48;32.40;38.60
4376;DHT22;2202;50.866;12.750;2023-06-22T10:42:15;32.50;39.90
4376;DHT22;2202;50.866;12.750;2023-06-22T10:44:41;32.30;36.90
4376;DHT22;2202;50.866;12.750;2023-06-22T10:47:09;32.50;39.00
4376;DHT22;2202;50.866;12.750;2023-06-22T10:49:37;32.60;36.90
4376;DHT22;2202;50.866;12.750;2023-06-22T10:52:05;32.30;39.00
4376;DHT22;2202;50.866;12.750;2023-06-22T10:54:33;32.00;38.50
4376;DHT22;2202;50.866;12.750;2023-06-22T10:57:01;31.70;40.90
4376;DHT22;2202;50.866;12.750;2023-06-22T10:59:28;31.60;41.10
4376;DHT22;2202;50.866;12.750;2023-06-22T11:01:55;31.80;41.70
4376;DHT22;2202;50.866;12.750;2023-06-22T11:04:23;32.00;41.30
4376;DHT22;2202;50.866;12.750;2023-06-22T11:06:50;31.90;40.60
4376;DHT22;2202;50.866;12.750;2023-06-22T11:09:17;32.00;40.20
4376;DHT22;2202;50.866;12.750;2023-06-22T11:11:46;32.20;38.60
4376;DHT22;2202;50.866;12.750;2023-06-22T11:14:14;32.20;39.50
4376;DHT22;2202;50.866;12.750;2023-06-22T11:16:41;32.10;42.40
4376;DHT22;2202;50.866;12.750;2023-06-22T11:19:07;32.30;37.90
4376;DHT22;2202;50.866;12.750;2023-06-22T11:21:34;32.00;39.30
4376;DHT22;2202;50.866;12.750;2023-06-22T11:24:01;31.80;39.00
4376;DHT22;2202;50.866;12.750;2023-06-22T11:26:28;31.70;41.70
4376;DHT22;2202;50.866;12.750;2023-06-22T11:28:55;32.00;42.00
4376;DHT22;2202;50.866;12.750;2023-06-22T11:31:23;32.40;42.50
4376;DHT22;2202;50.866;12.750;2023-06-22T11:33:50;32.90;38.60
4376;DHT22;2202;50.866;12.750;2023-06-22T11:36:17;33.20;38.30
4376;DHT22;2202;50.866;12.750;2023-06-22T11:38:44;33.10;37.40
4376;DHT22;2202;50.866;12.750;2023-06-22T11:41:10;32.80;38.50
4376;DHT22;2202;50.866;12.750;2023-06-22T11:43:37;32.80;36.70
4376;DHT22;2202;50.866;12.750;2023-06-22T11:46:04;32.80;39.20
4376;DHT22;2202;50.866;12.750;2023-06-22T11:48:32;33.00;37.90
4376;DHT22;2202;50.866;12.750;2023-06-22T11:50:59;33.00;36.70
4376;DHT22;2202;50.866;12.750;2023-06-22T11:53:26;33.20;36.10
4376;DHT22;2202;50.866;12.750;2023-06-22T11:55:53;33.30;37.60
4376;DHT22;2202;50.866;12.750;2023-06-22T11:58:20;33.50;35.10
4376;DHT22;2202;50.866;12.750;2023-06-22T12:00:47;33.20;35.10
4376;DHT22;2202;50.866;12.750;2023-06-22T12:03:14;33.10;35.40
4376;DHT22;2202;50.866;12.750;2023-06-22T12:05:43;32.90;36.30
4376;DHT22;2202;50.866;12.750;2023-06-22T12:08:10;32.90;36.90
4376;DHT22;2202;50.866;12.750;2023-06-22T12:10:37;32.90;36.30
4376;DHT22;2202;50.866;12.750;2023-06-22T12:13:04;32.90;37.00
4376;DHT22;2202;50.866;12.750;2023-06-22T12:15:30;33.00;36.70
4376;DHT22;2202;50.866;12.750;2023-06-22T12:17:57;33.30;35.60
4376;DHT22;2202;50.866;12.750;2023-06-22T12:20:24;33.30;36.10
4376;DHT22;2202;50.866;12.750;2023-06-22T12:22:52;33.00;36.70
4376;DHT22;2202;50.866;12.750;2023-06-22T12:25:21;33.20;37.40
4376;DHT22;2202;50.866;12.750;2023-06-22T12:27:48;33.40;34.70
4376;DHT22;2202;50.866;12.750;2023-06-22T12:30:16;33.40;36.50
4376;DHT22;2202;50.866;12.750;2023-06-22T12:32:43;33.40;35.30
4376;DHT22;2202;50.866;12.750;2023-06-22T12:35:09;33.30;35.60
4376;DHT22;2202;50.866;12.750;2023-06-22T12:37:39;33.30;35.30
4376;DHT22;2202;50.866;12.750;2023-06-22T12:40:09;33.30;35.60
4376;DHT22;2202;50.866;12.750;2023-06-22T12:42:36;33.40;33.70
4376;DHT22;2202;50.866;12.750;2023-06-22T12:45:03;33.20;35.30
4376;DHT22;2202;50.866;12.750;2023-06-22T12:47:30;33.00;34.60
4376;DHT22;2202;50.866;12.750;2023-06-22T12:49:57;32.90;36.10
4376;DHT22;2202;50.866;12.750;2023-06-22T12:52:24;33.10;37.20
4376;DHT22;2202;50.866;12.750;2023-06-22T12:54:50;33.10;35.40
4376;DHT22;2202;50.866;12.750;2023-06-22T12:57:19;33.00;34.60
4376;DHT22;2202;50.866;12.750;2023-06-22T12:59:45;32.80;35.60
4376;DHT22;2202;50.866;12.750;2023-06-22T13:02:12;32.60;34.60
4376;DHT22;2202;50.866;12.750;2023-06-22T13:04:39;32.60;37.60
4376;DHT22;2202;50.866;12.750;2023-06-22T13:07:05;32.80;34.00
4376;DHT22;2202;50.866;12.750;2023-06-22T13:09:32;32.90;34.70
4376;DHT22;2202;50.866;12.750;2023-06-22T13:12:00;33.20;35.40
4376;DHT22;2202;50.866;12.750;2023-06-22T13:14:29;33.30;34.20
4376;DHT22;2202;50.866;12.750;2023-06-22T13:16:56;33.60;34.20
4376;DHT22;2202;50.866;12.750;2023-06-22T13:19:22;33.90;38.10
4376;DHT22;2202;50.866;12.750;2023-06-22T13:21:50;34.00;34.00
4376;DHT22;2202;50.866;12.750;2023-06-22T13:24:16;34.10;33.00
4376;DHT22;2202;50.866;12.750;2023-06-22T13:26:43;34.20;34.40
4376;DHT22;2202;50.866;12.750;2023-06-22T13:29:09;34.30;32.80
4376;DHT22;2202;50.866;12.750;2023-06-22T13:31:38;34.30;33.70
4376;DHT22;2202;50.866;12.750;2023-06-22T13:34:05;34.40;33.10
4376;DHT22;2202;50.866;12.750;2023-06-22T13:36:32;34.40;33.80
4376;DHT22;2202;50.866;12.750;2023-06-22T13:38:58;34.00;34.00
4376;DHT22;2202;50.866;12.750;2023-06-22T13:51:31;33.10;35.40
4376;DHT22;2202;50.866;12.750;2023-06-22T13:53:58;33.10;36.90
4376;DHT22;2202;50.866;12.750;2023-06-22T13:56:25;33.20;36.50
4376;DHT22;2202;50.866;12.750;2023-06-22T13:58:52;33.30;34.90
4376;DHT22;2202;50.866;12.750;2023-06-22T14:01:19;33.30;35.60
4376;DHT22;2202;50.866;12.750;2023-06-22T14:03:47;33.50;35.40
4376;DHT22;2202;50.866;12.750;2023-06-22T14:06:14;33.60;37.00
4376;DHT22;2202;50.866;12.750;2023-06-22T14:08:43;33.70;34.60
4376;DHT22;2202;50.866;12.750;2023-06-22T14:11:10;33.60;34.90
4376;DHT22;2202;50.866;12.750;2023-06-22T14:13:36;33.70;34.40
4376;DHT22;2202;50.866;12.750;2023-06-22T14:16:04;33.60;36.10
4376;DHT22;2202;50.866;12.750;2023-06-22T14:18:31;33.50;34.70
4376;DHT22;2202;50.866;12.750;2023-06-22T14:20:58;33.30;35.80
4376;DHT22;2202;50.866;12.750;2023-06-22T14:23:25;33.50;37.00
4376;DHT22;2202;50.866;12.750;2023-06-22T14:25:53;33.60;36.50
4376;DHT22;2202;50.866;12.750;2023-06-22T14:28:20;33.90;35.60
4376;DHT22;2202;50.866;12.750;2023-06-22T14:30:46;34.00;35.60
4376;DHT22;2202;50.866;12.750;2023-06-22T14:33:13;33.70;35.80
4376;DHT22;2202;50.866;12.750;2023-06-22T14:35:40;33.50;36.30
4376;DHT22;2202;50.866;12.750;2023-06-22T14:38:07;33.50;35.40
4376;DHT22;2202;50.866;12.750;2023-06-22T14:40:34;33.20;36.10
4376;DHT22;2202;50.866;12.750;2023-06-22T14:43:02;33.00;37.20
4376;DHT22;2202;50.866;12.750;2023-06-22T14:45:29;33.00;37.40
4376;DHT22;2202;50.866;12.750;2023-06-22T14:47:55;33.00;37.20
4376;DHT22;2202;50.866;12.750;2023-06-22T14:50:22;32.70;38.80
4376;DHT22;2202;50.866;12.750;2023-06-22T14:52:49;32.70;38.10
4376;DHT22;2202;50.866;12.750;2023-06-22T14:55:16;33.00;38.10
4376;DHT22;2202;50.866;12.750;2023-06-22T14:57:45;33.30;36.50
4376;DHT22;2202;50.866;12.750;2023-06-22T15:00:13;33.30;36.00
4376;DHT22;2202;50.866;12.750;2023-06-22T15:02:41;33.10;35.60
4376;DHT22;2202;50.866;12.750;2023-06-22T15:05:08;32.90;37.70
4376;DHT22;2202;50.866;12.750;2023-06-22T15:07:35;32.90;37.70
4376;DHT22;2202;50.866;12.750;2023-06-22T15:10:02;33.00;36.90
4376;DHT22;2202;50.866;12.750;2023-06-22T15:12:28;33.10;37.60
4376;DHT22;2202;50.866;12.750;2023-06-22T15:14:55;33.30;37.60
4376;DHT22;2202;50.866;12.750;2023-06-22T15:17:23;33.30;37.90
4376;DHT22;2202;50.866;12.750;2023-06-22T15:19:54;33.40;35.80
4376;DHT22;2202;50.866;12.750;2023-06-22T15:22:21;33.10;37.20
4376;DHT22;2202;50.866;12.750;2023-06-22T15:24:48;33.10;37.00
4376;DHT22;2202;50.866;12.750;2023-06-22T15:27:15;33.30;37.20
4376;DHT22;2202;50.866;12.750;2023-06-22T15:29:42;33.40;37.40
4376;DHT22;2202;50.866;12.750;2023-06-22T15:32:13;33.40;36.30
4376;DHT22;2202;50.866;12.750;2023-06-22T15:34:42;33.00;36.90
4376;DHT22;2202;50.866;12.750;2023-06-22T15:37:09;32.80;36.90
4376;DHT22;2202;50.866;12.750;2023-06-22T15:39:36;32.60;37.20
4376;DHT22;2202;50.866;12.750;2023-06-22T15:42:03;32.40;37.60
4376;DHT22;2202;50.866;12.750;2023-06-22T15:44:30;32.30;39.30
4376;DHT22;2202;50.866;12.750;2023-06-22T15:46:57;32.30;39.30
4376;DHT22;2202;50.866;12.750;2023-06-22T15:49:23;32.50;39.30
4376;DHT22;2202;50.866;12.750;2023-06-22T15:51:52;32.40;39.30
4376;DHT22;2202;50.866;12.750;2023-06-22T15:54:18;32.40;40.20
4376;DHT22;2202;50.866;12.750;2023-06-22T15:56:45;32.30;39.00
4376;DHT22;2202;50.866;12.750;2023-06-22T15:59:12;32.00;39.70
4376;DHT22;2202;50.866;12.750;2023-06-22T16:01:39;32.10;41.50
4376;DHT22;2202;50.866;12.750;2023-06-22T16:04:06;32.20;39.30
4376;DHT22;2202;50.866;12.750;2023-06-22T16:06:32;32.30;40.20
4376;DHT22;2202;50.866;12.750;2023-06-22T16:09:01;32.40;39.90
4376;DHT22;2202;50.866;12.750;2023-06-22T16:11:28;32.60;39.90
4376;DHT22;2202;50.866;12.750;2023-06-22T16:13:55;32.50;38.80
4376;DHT22;2202;50.866;12.750;2023-06-22T16:16:22;32.40;39.20
4376;DHT22;2202;50.866;12.750;2023-06-22T16:18:49;32.50;38.50
4376;DHT22;2202;50.866;12.750;2023-06-22T16:21:16;32.20;39.90
4376;DHT22;2202;50.866;12.750;2023-06-22T16:23:42;32.10;39.50
4376;DHT22;2202;50.866;12.750;2023-06-22T16:26:11;32.00;39.50
4376;DHT22;2202;50.866;12.750;2023-06-22T16:28:37;32.00;40.40
4376;DHT22;2202;50.866;12.750;2023-06-22T16:31:04;32.00;41.10
4376;DHT22;2202;50.866;12.750;2023-06-22T16:33:31;31.90;40.80
4376;DHT22;2202;50.866;12.750;2023-06-22T16:35:58;31.90;40.60
4376;DHT22;2202;50.866;12.750;2023-06-22T16:38:25;31.80;40.20
4376;DHT22;2202;50.866;12.750;2023-06-22T16:40:52;31.70;42.20
4376;DHT22;2202;50.866;12.750;2023-06-22T16:43:21;31.70;41.50
4376;DHT22;2202;50.866;12.750;2023-06-22T16:45:48;31.70;40.90
4376;DHT22;2202;50.866;12.750;2023-06-22T16:48:15;31.60;40.90
4376;DHT22;2202;50.866;12.750;2023-06-22T16:50:42;31.60;42.00
4376;DHT22;2202;50.866;12.750;2023-06-22T16:53:09;31.40;42.70
4376;DHT22;2202;50.866;12.750;2023-06-22T16:55:36;31.20;42.20
4376;DHT22;2202;50.866;12.750;2023-06-22T16:58:04;31.00;42.90
4376;DHT22;2202;50.866;12.750;2023-06-22T17:00:32;30.90;43.60
4376;DHT22;2202;50.866;12.750;2023-06-22T17:03:02;30.70;43.40
4376;DHT22;2202;50.866;12.750;2023-06-22T17:05:31;30.60;44.30
4376;DHT22;2202;50.866;12.750;2023-06-22T17:08:02;30.50;44.80
4376;DHT22;2202;50.866;12.750;2023-06-22T17:10:29;30.40;45.60
4376;DHT22;2202;50.866;12.750;2023-06-22T17:12:58;30.40;45.70
4376;DHT22;2202;50.866;12.750;2023-06-22T17:15:26;30.30;45.40
4376;DHT22;2202;50.866;12.750;2023-06-22T17:17:57;30.20;45.70
4376;DHT22;2202;50.866;12.750;2023-06-22T17:20:24;30.20;45.40
4376;DHT22;2202;50.866;12.750;2023-06-22T17:22:51;30.20;46.30
4376;DHT22;2202;50.866;12.750;2023-06-22T17:25:19;30.20;45.90
4376;DHT22;2202;50.866;12.750;2023-06-22T17:27:48;30.20;46.60
4376;DHT22;2202;50.866;12.750;2023-06-22T17:30:16;30.10;46.40
4376;DHT22;2202;50.866;12.750;2023-06-22T17:32:46;29.90;46.40
4376;DHT22;2202;50.866;12.750;2023-06-22T17:35:14;29.80;47.00
4376;DHT22;2202;50.866;12.750;2023-06-22T17:37:50;29.70;47.20
4376;DHT22;2202;50.866;12.750;2023-06-22T17:40:18;29.50;48.20
4376;DHT22;2202;50.866;12.750;2023-06-22T17:42:47;29.40;48.40
4376;DHT22;2202;50.866;12.750;2023-06-22T17:45:15;29.30;48.80
4376;DHT22;2202;50.866;12.750;2023-06-22T17:47:46;29.30;49.30
4376;DHT22;2202;50.866;12.750;2023-06-22T17:50:15;29.10;49.60
4376;DHT22;2202;50.866;12.750;2023-06-22T17:52:49;29.10;50.00
4376;DHT22;2202;50.866;12.750;2023-06-22T17:55:19;29.00;50.70
4376;DHT22;2202;50.866;12.750;2023-06-22T17:57:46;29.00;50.00
4376;DHT22;2202;50.866;12.750;2023-06-22T18:00:16;28.80;50.30
4376;DHT22;2202;50.866;12.750;2023-06-22T18:02:45;28.80;50.50
4376;DHT22;2202;50.866;12.750;2023-06-22T18:05:12;28.80;51.20
4376;DHT22;2202;50.866;12.750;2023-06-22T18:07:41;28.70;50.90
4376;DHT22;2202;50.866;12.750;2023-06-22T18:10:09;28.70;51.10
4376;DHT22;2202;50.866;12.750;2023-06-22T18:12:37;28.60;51.80
4376;DHT22;2202;50.866;12.750;2023-06-22T18:15:05;28.50;51.80
4376;DHT22;2202;50.866;12.750;2023-06-22T18:17:32;28.50;51.90
4376;DHT22;2202;50.866;12.750;2023-06-22T18:20:01;28.40;52.10
4376;DHT22;2202;50.866;12.750;2023-06-22T18:22:29;28.30;52.80
4376;DHT22;2202;50.866;12.750;2023-06-22T18:24:59;28.30;53.40
4376;DHT22;2202;50.866;12.750;2023-06-22T18:27:28;28.20;53.50
4376;DHT22;2202;50.866;12.750;2023-06-22T18:29:55;28.10;53.70
4376;DHT22;2202;50.866;12.750;2023-06-22T18:32:22;28.20;53.90
4376;DHT22;2202;50.866;12.750;2023-06-22T18:34:50;28.10;54.10
4376;DHT22;2202;50.866;12.750;2023-06-22T18:37:18;28.10;54.30
4376;DHT22;2202;50.866;12.750;2023-06-22T18:39:46;28.00;54.60
4376;DHT22;2202;50.866;12.750;2023-06-22T18:42:17;28.00;54.80
4376;DHT22;2202;50.866;12.750;2023-06-22T18:44:44;27.90;55.30
4376;DHT22;2202;50.866;12.750;2023-06-22T18:47:25;27.90;55.50
4376;DHT22;2202;50.866;12.750;2023-06-22T18:49:52;27.90;56.00
4376;DHT22;2202;50.866;12.750;2023-06-22T18:52:24;27.80;56.00
4376;DHT22;2202;50.866;12.750;2023-06-22T18:54:52;27.80;56.60
4376;DHT22;2202;50.866;12.750;2023-06-22T18:57:23;27.70;56.90
4376;DHT22;2202;50.866;12.750;2023-06-22T18:59:58;27.60;57.30
4376;DHT22;2202;50.866;12.750;2023-06-22T19:02:40;27.50;57.60
4376;DHT22;2202;50.866;12.750;2023-06-22T19:05:09;27.50;57.60
4376;DHT22;2202;50.866;12.750;2023-06-22T19:07:57;27.50;58.00
4376;DHT22;2202;50.866;12.750;2023-06-22T19:10:25;27.40;58.50
4376;DHT22;2202;50.866;12.750;2023-06-22T19:12:55;27.40;58.50
4376;DHT22;2202;50.866;12.750;2023-06-22T19:15:29;27.40;58.90
4376;DHT22;2202;50.866;12.750;2023-06-22T19:18:00;27.30;58.90
4376;DHT22;2202;50.866;12.750;2023-06-22T19:20:32;27.20;59.00